sensor_id;sensor_type;location;lat;lon;timestamp;P1;durP1;ratioP1;P2;durP2;ratioP2
703;SDS011;335;48.694;9.120;2022-12-10T00:00:20;40.23;;;28.47;;
703;SDS011;335;48.694;9.120;2022-12-10T00:02:46;38.10;;;28.80;;
703;SDS011;335;48.694;9.120;2022-12-10T00:05:11;48.67;;;33.80;;
703;SDS011;335;48.694;9.120;2022-12-10T00:07:36;38.60;;;29.17;;
703;SDS011;335;48.694;9.120;2022-12-10T00:10:02;43.90;;;29.27;;
703;SDS011;335;48.694;9.120;2022-12-10T00:12:28;41.80;;;29.73;;
703;SDS011;335;48.694;9.120;2022-12-10T00:14:53;36.60;;;27.23;;
703;SDS011;335;48.694;9.120;2022-12-10T00:17:18;43.17;;;31.33;;
703;SDS011;335;48.694;9.120;2022-12-10T00:19:44;44.33;;;30.10;;
703;SDS011;335;48.694;9.120;2022-12-10T00:22:09;43.87;;;30.27;;
703;SDS011;335;48.694;9.120;2022-12-10T00:24:34;42.33;;;30.17;;
703;SDS011;335;48.694;9.120;2022-12-10T00:27:00;38.23;;;28.77;;
703;SDS011;335;48.694;9.120;2022-12-10T00:29:25;53.23;;;34.40;;
703;SDS011;335;48.694;9.120;2022-12-10T00:31:50;43.50;;;29.67;;
703;SDS011;335;48.694;9.120;2022-12-10T00:34:16;41.40;;;29.50;;
703;SDS011;335;48.694;9.120;2022-12-10T00:36:43;35.73;;;26.77;;
703;SDS011;335;48.694;9.120;2022-12-10T00:39:12;43.75;;;31.60;;
703;SDS011;335;48.694;9.120;2022-12-10T00:41:39;42.45;;;30.23;;
703;SDS011;335;48.694;9.120;2022-12-10T00:44:04;49.33;;;32.63;;
703;SDS011;335;48.694;9.120;2022-12-10T00:46:30;53.00;;;32.93;;
703;SDS011;335;48.694;9.120;2022-12-10T00:48:57;44.70;;;31.37;;
703;SDS011;335;48.694;9.120;2022-12-10T00:51:24;52.42;;;33.88;;
703;SDS011;335;48.694;9.120;2022-12-10T00:53:51;47.28;;;33.38;;
703;SDS011;335;48.694;9.120;2022-12-10T00:56:18;41.10;;;30.10;;
703;SDS011;335;48.694;9.120;2022-12-10T00:58:46;41.40;;;31.00;;
703;SDS011;335;48.694;9.120;2022-12-10T01:03:42;40.78;;;29.65;;
703;SDS011;335;48.694;9.120;2022-12-10T01:06:08;36.23;;;26.40;;
703;SDS011;335;48.694;9.120;2022-12-10T01:08:48;42.75;;;30.05;;
703;SDS011;335;48.694;9.120;2022-12-10T01:11:14;33.00;;;24.95;;
703;SDS011;335;48.694;9.120;2022-12-10T01:13:40;42.30;;;29.80;;
703;SDS011;335;48.694;9.120;2022-12-10T01:16:07;37.23;;;29.00;;
703;SDS011;335;48.694;9.120;2022-12-10T01:18:33;38.65;;;28.33;;
703;SDS011;335;48.694;9.120;2022-12-10T01:21:08;39.63;;;29.57;;
703;SDS011;335;48.694;9.120;2022-12-10T01:23:36;39.72;;;27.75;;
703;SDS011;335;48.694;9.120;2022-12-10T01:26:03;34.85;;;27.00;;
703;SDS011;335;48.694;9.120;2022-12-10T01:28:31;41.05;;;29.77;;
703;SDS011;335;48.694;9.120;2022-12-10T01:31:02;42.00;;;29.02;;
703;SDS011;335;48.694;9.120;2022-12-10T01:33:32;38.15;;;29.27;;
703;SDS011;335;48.694;9.120;2022-12-10T01:36:05;42.67;;;28.60;;
703;SDS011;335;48.694;9.120;2022-12-10T01:38:33;40.60;;;28.70;;
703;SDS011;335;48.694;9.120;2022-12-10T01:40:59;37.07;;;28.60;;
703;SDS011;335;48.694;9.120;2022-12-10T01:43:25;39.55;;;28.13;;
703;SDS011;335;48.694;9.120;2022-12-10T01:45:51;44.30;;;31.70;;
703;SDS011;335;48.694;9.120;2022-12-10T01:48:16;43.60;;;29.37;;
703;SDS011;335;48.694;9.120;2022-12-10T01:50:41;40.03;;;28.57;;
703;SDS011;335;48.694;9.120;2022-12-10T01:53:07;35.93;;;25.73;;
703;SDS011;335;48.694;9.120;2022-12-10T01:55:46;38.23;;;28.77;;
703;SDS011;335;48.694;9.120;2022-12-10T01:58:14;38.78;;;28.88;;
703;SDS011;335;48.694;9.120;2022-12-10T02:00:44;38.45;;;27.00;;
703;SDS011;335;48.694;9.120;2022-12-10T02:11:52;41.15;;;29.38;;
703;SDS011;335;48.694;9.120;2022-12-10T02:16:56;37.42;;;26.27;;
703;SDS011;335;48.694;9.120;2022-12-10T02:19:26;36.08;;;26.50;;
703;SDS011;335;48.694;9.120;2022-12-10T02:21:56;37.92;;;27.52;;
703;SDS011;335;48.694;9.120;2022-12-10T02:24:23;38.43;;;29.60;;
703;SDS011;335;48.694;9.120;2022-12-10T02:29:23;32.50;;;24.08;;
703;SDS011;335;48.694;9.120;2022-12-10T02:31:53;37.60;;;27.70;;
703;SDS011;335;48.694;9.120;2022-12-10T02:34:26;34.50;;;26.27;;
703;SDS011;335;48.694;9.120;2022-12-10T02:36:55;32.65;;;24.48;;
703;SDS011;335;48.694;9.120;2022-12-10T02:39:27;35.92;;;24.42;;
703;SDS011;335;48.694;9.120;2022-12-10T02:41:55;39.08;;;29.17;;
703;SDS011;335;48.694;9.120;2022-12-10T02:44:22;36.30;;;28.15;;
703;SDS011;335;48.694;9.120;2022-12-10T02:46:49;36.38;;;26.98;;
703;SDS011;335;48.694;9.120;2022-12-10T02:49:17;38.38;;;29.42;;
703;SDS011;335;48.694;9.120;2022-12-10T02:51:42;39.10;;;26.13;;
703;SDS011;335;48.694;9.120;2022-12-10T03:00:02;34.38;;;25.48;;
703;SDS011;335;48.694;9.120;2022-12-10T03:05:35;35.78;;;27.58;;
703;SDS011;335;48.694;9.120;2022-12-10T03:08:07;35.13;;;26.33;;
703;SDS011;335;48.694;9.120;2022-12-10T03:13:23;42.05;;;30.92;;
703;SDS011;335;48.694;9.120;2022-12-10T03:16:00;38.25;;;27.58;;
703;SDS011;335;48.694;9.120;2022-12-10T03:18:27;41.35;;;27.75;;
703;SDS011;335;48.694;9.120;2022-12-10T03:20:54;34.35;;;25.92;;
703;SDS011;335;48.694;9.120;2022-12-10T03:23:23;36.45;;;25.95;;
703;SDS011;335;48.694;9.120;2022-12-10T03:25:49;35.03;;;26.53;;
703;SDS011;335;48.694;9.120;2022-12-10T03:28:15;34.20;;;26.63;;
703;SDS011;335;48.694;9.120;2022-12-10T03:30:43;33.92;;;26.27;;
703;SDS011;335;48.694;9.120;2022-12-10T03:33:09;38.07;;;26.77;;
703;SDS011;335;48.694;9.120;2022-12-10T03:35:34;37.37;;;27.93;;
703;SDS011;335;48.694;9.120;2022-12-10T03:38:00;39.60;;;27.00;;
703;SDS011;335;48.694;9.120;2022-12-10T03:40:26;36.97;;;27.38;;
703;SDS011;335;48.694;9.120;2022-12-10T03:42:51;37.40;;;26.07;;
703;SDS011;335;48.694;9.120;2022-12-10T03:45:17;40.60;;;27.30;;
703;SDS011;335;48.694;9.120;2022-12-10T03:47:42;34.90;;;26.37;;
703;SDS011;335;48.694;9.120;2022-12-10T03:50:09;40.20;;;28.10;;
703;SDS011;335;48.694;9.120;2022-12-10T03:52:34;39.28;;;26.90;;
703;SDS011;335;48.694;9.120;2022-12-10T03:55:00;37.87;;;29.17;;
703;SDS011;335;48.694;9.120;2022-12-10T03:57:25;39.80;;;28.13;;
703;SDS011;335;48.694;9.120;2022-12-10T03:59:51;36.50;;;26.30;;
703;SDS011;335;48.694;9.120;2022-12-10T04:02:16;35.63;;;26.40;;
703;SDS011;335;48.694;9.120;2022-12-10T04:04:42;35.37;;;25.60;;
703;SDS011;335;48.694;9.120;2022-12-10T04:07:07;39.63;;;27.13;;
703;SDS011;335;48.694;9.120;2022-12-10T04:09:32;37.37;;;27.07;;
703;SDS011;335;48.694;9.120;2022-12-10T04:11:58;33.30;;;25.43;;
703;SDS011;335;48.694;9.120;2022-12-10T04:14:24;42.30;;;29.92;;
703;SDS011;335;48.694;9.120;2022-12-10T04:17:08;37.92;;;27.27;;
703;SDS011;335;48.694;9.120;2022-12-10T04:19:34;35.90;;;26.93;;
703;SDS011;335;48.694;9.120;2022-12-10T04:21:59;33.37;;;24.87;;
703;SDS011;335;48.694;9.120;2022-12-10T04:24:43;33.13;;;24.95;;
703;SDS011;335;48.694;9.120;2022-12-10T04:27:31;30.50;;;22.80;;
703;SDS011;335;48.694;9.120;2022-12-10T04:29:58;34.50;;;24.42;;
703;SDS011;335;48.694;9.120;2022-12-10T04:32:25;33.57;;;24.30;;
703;SDS011;335;48.694;9.120;2022-12-10T04:34:51;32.88;;;24.63;;
703;SDS011;335;48.694;9.120;2022-12-10T04:37:17;33.80;;;25.77;;
703;SDS011;335;48.694;9.120;2022-12-10T04:39:42;30.15;;;25.40;;
703;SDS011;335;48.694;9.120;2022-12-10T04:42:08;33.63;;;25.57;;
703;SDS011;335;48.694;9.120;2022-12-10T04:44:33;31.10;;;24.07;;
703;SDS011;335;48.694;9.120;2022-12-10T04:46:59;34.60;;;25.77;;
703;SDS011;335;48.694;9.120;2022-12-10T04:49:25;36.00;;;27.70;;
703;SDS011;335;48.694;9.120;2022-12-10T04:51:50;43.87;;;29.60;;
703;SDS011;335;48.694;9.120;2022-12-10T04:54:17;41.45;;;29.00;;
703;SDS011;335;48.694;9.120;2022-12-10T04:56:43;32.80;;;26.47;;
703;SDS011;335;48.694;9.120;2022-12-10T04:59:08;34.97;;;26.60;;
703;SDS011;335;48.694;9.120;2022-12-10T05:01:34;35.13;;;25.27;;
703;SDS011;335;48.694;9.120;2022-12-10T05:04:01;32.20;;;23.90;;
703;SDS011;335;48.694;9.120;2022-12-10T05:06:27;34.90;;;25.75;;
703;SDS011;335;48.694;9.120;2022-12-10T05:08:53;34.53;;;24.83;;
703;SDS011;335;48.694;9.120;2022-12-10T05:11:19;37.60;;;26.13;;
703;SDS011;335;48.694;9.120;2022-12-10T05:13:45;31.60;;;24.50;;
703;SDS011;335;48.694;9.120;2022-12-10T05:16:12;34.58;;;25.65;;
703;SDS011;335;48.694;9.120;2022-12-10T05:18:39;36.80;;;27.35;;
703;SDS011;335;48.694;9.120;2022-12-10T05:21:06;35.40;;;25.07;;
703;SDS011;335;48.694;9.120;2022-12-10T05:23:35;33.83;;;27.17;;
703;SDS011;335;48.694;9.120;2022-12-10T05:26:02;32.15;;;24.30;;
703;SDS011;335;48.694;9.120;2022-12-10T05:28:31;36.08;;;26.73;;
703;SDS011;335;48.694;9.120;2022-12-10T05:30:59;36.92;;;26.45;;
703;SDS011;335;48.694;9.120;2022-12-10T05:33:25;34.60;;;25.43;;
703;SDS011;335;48.694;9.120;2022-12-10T05:35:51;35.00;;;25.60;;
703;SDS011;335;48.694;9.120;2022-12-10T05:38:20;34.95;;;26.02;;
703;SDS011;335;48.694;9.120;2022-12-10T05:40:46;33.80;;;25.90;;
703;SDS011;335;48.694;9.120;2022-12-10T05:43:11;33.17;;;25.57;;
703;SDS011;335;48.694;9.120;2022-12-10T05:45:37;33.60;;;25.37;;
703;SDS011;335;48.694;9.120;2022-12-10T05:48:02;34.70;;;24.93;;
703;SDS011;335;48.694;9.120;2022-12-10T05:50:27;31.00;;;24.80;;
703;SDS011;335;48.694;9.120;2022-12-10T05:52:53;34.53;;;25.10;;
703;SDS011;335;48.694;9.120;2022-12-10T05:55:18;36.37;;;25.40;;
703;SDS011;335;48.694;9.120;2022-12-10T05:57:43;39.97;;;29.17;;
703;SDS011;335;48.694;9.120;2022-12-10T06:00:09;32.37;;;25.60;;
703;SDS011;335;48.694;9.120;2022-12-10T06:02:35;33.72;;;23.77;;
703;SDS011;335;48.694;9.120;2022-12-10T06:05:00;37.73;;;27.10;;
703;SDS011;335;48.694;9.120;2022-12-10T06:07:26;34.63;;;26.10;;
703;SDS011;335;48.694;9.120;2022-12-10T06:09:51;45.50;;;31.40;;
703;SDS011;335;48.694;9.120;2022-12-10T06:12:16;36.37;;;27.10;;
703;SDS011;335;48.694;9.120;2022-12-10T06:14:42;38.27;;;27.23;;
703;SDS011;335;48.694;9.120;2022-12-10T06:17:07;40.30;;;27.73;;
703;SDS011;335;48.694;9.120;2022-12-10T06:19:33;35.20;;;27.47;;
703;SDS011;335;48.694;9.120;2022-12-10T06:21:58;37.87;;;29.10;;
703;SDS011;335;48.694;9.120;2022-12-10T06:24:24;41.93;;;28.30;;
703;SDS011;335;48.694;9.120;2022-12-10T06:26:49;33.00;;;25.75;;
703;SDS011;335;48.694;9.120;2022-12-10T06:29:16;45.47;;;30.80;;
703;SDS011;335;48.694;9.120;2022-12-10T06:31:41;46.63;;;31.20;;
703;SDS011;335;48.694;9.120;2022-12-10T06:34:06;40.97;;;29.43;;
703;SDS011;335;48.694;9.120;2022-12-10T06:36:32;37.27;;;26.83;;
703;SDS011;335;48.694;9.120;2022-12-10T06:38:57;43.10;;;28.60;;
703;SDS011;335;48.694;9.120;2022-12-10T06:41:22;36.23;;;26.67;;
703;SDS011;335;48.694;9.120;2022-12-10T06:43:48;39.07;;;25.53;;
703;SDS011;335;48.694;9.120;2022-12-10T06:46:15;45.03;;;30.33;;
703;SDS011;335;48.694;9.120;2022-12-10T06:48:41;40.30;;;28.10;;
703;SDS011;335;48.694;9.120;2022-12-10T06:51:07;32.30;;;25.80;;
703;SDS011;335;48.694;9.120;2022-12-10T06:53:34;44.03;;;28.50;;
703;SDS011;335;48.694;9.120;2022-12-10T06:56:00;39.38;;;26.52;;
703;SDS011;335;48.694;9.120;2022-12-10T06:58:27;33.97;;;26.02;;
703;SDS011;335;48.694;9.120;2022-12-10T07:00:53;40.05;;;28.95;;
703;SDS011;335;48.694;9.120;2022-12-10T07:03:19;36.23;;;27.10;;
703;SDS011;335;48.694;9.120;2022-12-10T07:05:44;37.80;;;26.87;;
703;SDS011;335;48.694;9.120;2022-12-10T07:08:09;38.20;;;27.70;;
703;SDS011;335;48.694;9.120;2022-12-10T07:10:36;37.60;;;27.30;;
703;SDS011;335;48.694;9.120;2022-12-10T07:13:02;37.80;;;27.10;;
703;SDS011;335;48.694;9.120;2022-12-10T07:15:27;41.27;;;28.33;;
703;SDS011;335;48.694;9.120;2022-12-10T07:17:53;40.90;;;30.37;;
703;SDS011;335;48.694;9.120;2022-12-10T07:20:19;37.83;;;27.43;;
703;SDS011;335;48.694;9.120;2022-12-10T07:22:44;38.70;;;27.47;;
703;SDS011;335;48.694;9.120;2022-12-10T07:25:09;37.33;;;28.07;;
703;SDS011;335;48.694;9.120;2022-12-10T07:27:35;39.30;;;28.57;;
703;SDS011;335;48.694;9.120;2022-12-10T07:30:01;34.57;;;26.80;;
703;SDS011;335;48.694;9.120;2022-12-10T07:32:26;38.90;;;27.47;;
703;SDS011;335;48.694;9.120;2022-12-10T07:34:52;38.15;;;27.55;;
703;SDS011;335;48.694;9.120;2022-12-10T07:37:17;40.03;;;28.77;;
703;SDS011;335;48.694;9.120;2022-12-10T07:39:43;38.90;;;26.63;;
703;SDS011;335;48.694;9.120;2022-12-10T07:42:08;33.90;;;26.90;;
703;SDS011;335;48.694;9.120;2022-12-10T07:44:34;37.40;;;26.60;;
703;SDS011;335;48.694;9.120;2022-12-10T07:46:59;41.30;;;28.13;;
703;SDS011;335;48.694;9.120;2022-12-10T07:49:24;32.93;;;23.30;;
703;SDS011;335;48.694;9.120;2022-12-10T07:51:50;35.43;;;25.40;;
703;SDS011;335;48.694;9.120;2022-12-10T07:54:15;37.73;;;26.33;;
703;SDS011;335;48.694;9.120;2022-12-10T07:56:41;37.67;;;27.40;;
703;SDS011;335;48.694;9.120;2022-12-10T07:59:06;35.47;;;24.23;;
703;SDS011;335;48.694;9.120;2022-12-10T08:01:32;40.97;;;26.80;;
703;SDS011;335;48.694;9.120;2022-12-10T08:03:57;33.63;;;24.60;;
703;SDS011;335;48.694;9.120;2022-12-10T08:06:23;35.03;;;26.23;;
703;SDS011;335;48.694;9.120;2022-12-10T08:08:49;33.75;;;24.15;;
703;SDS011;335;48.694;9.120;2022-12-10T08:11:15;33.60;;;25.30;;
703;SDS011;335;48.694;9.120;2022-12-10T08:13:42;34.20;;;24.77;;
703;SDS011;335;48.694;9.120;2022-12-10T08:16:17;34.00;;;24.90;;
703;SDS011;335;48.694;9.120;2022-12-10T08:18:44;37.42;;;27.05;;
703;SDS011;335;48.694;9.120;2022-12-10T08:21:11;37.70;;;26.95;;
703;SDS011;335;48.694;9.120;2022-12-10T08:23:40;38.65;;;25.77;;
703;SDS011;335;48.694;9.120;2022-12-10T08:26:10;30.90;;;23.43;;
703;SDS011;335;48.694;9.120;2022-12-10T08:28:37;34.47;;;25.08;;
703;SDS011;335;48.694;9.120;2022-12-10T08:31:03;32.10;;;23.60;;
703;SDS011;335;48.694;9.120;2022-12-10T08:33:29;32.67;;;24.33;;
703;SDS011;335;48.694;9.120;2022-12-10T08:35:58;30.90;;;22.57;;
703;SDS011;335;48.694;9.120;2022-12-10T08:38:24;35.20;;;24.60;;
703;SDS011;335;48.694;9.120;2022-12-10T08:40:50;27.40;;;22.30;;
703;SDS011;335;48.694;9.120;2022-12-10T08:43:16;30.50;;;24.03;;
703;SDS011;335;48.694;9.120;2022-12-10T08:45:41;28.50;;;21.93;;
703;SDS011;335;48.694;9.120;2022-12-10T08:48:06;33.13;;;23.07;;
703;SDS011;335;48.694;9.120;2022-12-10T08:50:32;28.40;;;22.50;;
703;SDS011;335;48.694;9.120;2022-12-10T08:52:57;27.80;;;21.60;;
703;SDS011;335;48.694;9.120;2022-12-10T08:55:22;26.70;;;22.30;;
703;SDS011;335;48.694;9.120;2022-12-10T08:57:48;31.60;;;22.50;;
703;SDS011;335;48.694;9.120;2022-12-10T09:00:13;32.17;;;22.93;;
703;SDS011;335;48.694;9.120;2022-12-10T09:02:39;31.83;;;22.43;;
703;SDS011;335;48.694;9.120;2022-12-10T09:05:05;34.33;;;23.90;;
703;SDS011;335;48.694;9.120;2022-12-10T09:07:31;36.45;;;23.80;;
703;SDS011;335;48.694;9.120;2022-12-10T09:09:56;32.93;;;23.97;;
703;SDS011;335;48.694;9.120;2022-12-10T09:12:22;33.10;;;25.10;;
703;SDS011;335;48.694;9.120;2022-12-10T09:14:47;34.30;;;23.83;;
703;SDS011;335;48.694;9.120;2022-12-10T09:17:13;28.70;;;22.57;;
703;SDS011;335;48.694;9.120;2022-12-10T09:19:38;28.60;;;22.27;;
703;SDS011;335;48.694;9.120;2022-12-10T09:22:03;30.83;;;24.60;;
703;SDS011;335;48.694;9.120;2022-12-10T09:24:29;33.10;;;23.63;;
703;SDS011;335;48.694;9.120;2022-12-10T09:26:54;31.23;;;23.23;;
703;SDS011;335;48.694;9.120;2022-12-10T09:29:19;32.80;;;23.40;;
703;SDS011;335;48.694;9.120;2022-12-10T09:31:45;33.23;;;24.00;;
703;SDS011;335;48.694;9.120;2022-12-10T09:34:15;25.83;;;21.35;;
703;SDS011;335;48.694;9.120;2022-12-10T09:36:40;29.77;;;22.73;;
703;SDS011;335;48.694;9.120;2022-12-10T09:39:05;31.50;;;22.50;;
703;SDS011;335;48.694;9.120;2022-12-10T09:46:53;36.67;;;26.08;;
703;SDS011;335;48.694;9.120;2022-12-10T09:52:04;31.02;;;22.60;;
703;SDS011;335;48.694;9.120;2022-12-10T09:54:36;31.48;;;24.25;;
703;SDS011;335;48.694;9.120;2022-12-10T09:57:05;37.65;;;24.55;;
703;SDS011;335;48.694;9.120;2022-12-10T09:59:32;28.90;;;20.95;;
703;SDS011;335;48.694;9.120;2022-12-10T10:02:21;32.67;;;24.25;;
703;SDS011;335;48.694;9.120;2022-12-10T10:04:58;34.28;;;24.70;;
703;SDS011;335;48.694;9.120;2022-12-10T10:07:35;33.47;;;24.95;;
703;SDS011;335;48.694;9.120;2022-12-10T10:10:07;29.40;;;22.98;;
703;SDS011;335;48.694;9.120;2022-12-10T10:12:44;32.53;;;23.23;;
703;SDS011;335;48.694;9.120;2022-12-10T10:15:12;33.53;;;22.73;;
703;SDS011;335;48.694;9.120;2022-12-10T10:17:39;35.40;;;27.05;;
703;SDS011;335;48.694;9.120;2022-12-10T10:20:07;29.70;;;24.35;;
703;SDS011;335;48.694;9.120;2022-12-10T10:22:33;28.67;;;23.40;;
703;SDS011;335;48.694;9.120;2022-12-10T10:24:58;26.80;;;22.33;;
703;SDS011;335;48.694;9.120;2022-12-10T10:27:28;32.80;;;23.90;;
703;SDS011;335;48.694;9.120;2022-12-10T10:29:55;35.35;;;23.88;;
703;SDS011;335;48.694;9.120;2022-12-10T10:32:22;30.95;;;23.83;;
703;SDS011;335;48.694;9.120;2022-12-10T10:34:54;31.85;;;23.83;;
703;SDS011;335;48.694;9.120;2022-12-10T10:37:22;32.65;;;24.25;;
703;SDS011;335;48.694;9.120;2022-12-10T10:39:53;33.00;;;24.55;;
703;SDS011;335;48.694;9.120;2022-12-10T10:42:27;33.72;;;24.30;;
703;SDS011;335;48.694;9.120;2022-12-10T10:45:04;30.08;;;22.45;;
703;SDS011;335;48.694;9.120;2022-12-10T10:47:32;32.90;;;24.35;;
703;SDS011;335;48.694;9.120;2022-12-10T10:50:03;31.25;;;22.38;;
703;SDS011;335;48.694;9.120;2022-12-10T10:52:30;28.48;;;22.38;;
703;SDS011;335;48.694;9.120;2022-12-10T10:55:00;32.45;;;23.20;;
703;SDS011;335;48.694;9.120;2022-12-10T10:57:29;31.33;;;23.70;;
703;SDS011;335;48.694;9.120;2022-12-10T11:02:44;28.88;;;23.90;;
703;SDS011;335;48.694;9.120;2022-12-10T11:05:23;28.97;;;22.90;;
703;SDS011;335;48.694;9.120;2022-12-10T11:07:58;26.13;;;20.50;;
703;SDS011;335;48.694;9.120;2022-12-10T11:10:25;30.85;;;22.73;;
703;SDS011;335;48.694;9.120;2022-12-10T11:12:55;27.20;;;21.77;;
703;SDS011;335;48.694;9.120;2022-12-10T11:15:39;24.77;;;21.45;;
703;SDS011;335;48.694;9.120;2022-12-10T11:20:59;27.13;;;21.08;;
703;SDS011;335;48.694;9.120;2022-12-10T11:23:38;24.48;;;21.02;;
703;SDS011;335;48.694;9.120;2022-12-10T11:35:16;26.20;;;21.52;;
703;SDS011;335;48.694;9.120;2022-12-10T11:37:53;24.33;;;19.52;;
703;SDS011;335;48.694;9.120;2022-12-10T11:43:23;24.08;;;20.13;;
703;SDS011;335;48.694;9.120;2022-12-10T11:46:00;25.40;;;19.88;;
703;SDS011;335;48.694;9.120;2022-12-10T11:56:44;22.45;;;20.05;;
703;SDS011;335;48.694;9.120;2022-12-10T12:01:46;25.05;;;19.90;;
703;SDS011;335;48.694;9.120;2022-12-10T12:04:30;26.40;;;20.85;;
703;SDS011;335;48.694;9.120;2022-12-10T12:12:59;22.85;;;17.63;;
703;SDS011;335;48.694;9.120;2022-12-10T12:15:33;29.90;;;20.17;;
703;SDS011;335;48.694;9.120;2022-12-10T12:18:13;24.42;;;19.45;;
703;SDS011;335;48.694;9.120;2022-12-10T12:20:48;25.23;;;19.75;;
703;SDS011;335;48.694;9.120;2022-12-10T12:23:26;21.05;;;18.20;;
703;SDS011;335;48.694;9.120;2022-12-10T12:26:05;22.35;;;18.35;;
703;SDS011;335;48.694;9.120;2022-12-10T12:28:41;23.25;;;19.38;;
703;SDS011;335;48.694;9.120;2022-12-10T12:31:14;24.92;;;20.70;;
703;SDS011;335;48.694;9.120;2022-12-10T12:33:47;30.83;;;22.23;;
703;SDS011;335;48.694;9.120;2022-12-10T12:36:19;22.20;;;18.88;;
703;SDS011;335;48.694;9.120;2022-12-10T12:44:29;22.65;;;18.10;;
703;SDS011;335;48.694;9.120;2022-12-10T12:47:02;23.13;;;19.25;;
703;SDS011;335;48.694;9.120;2022-12-10T12:49:48;22.77;;;19.05;;
703;SDS011;335;48.694;9.120;2022-12-10T12:54:59;21.88;;;17.13;;
703;SDS011;335;48.694;9.120;2022-12-10T13:00:00;22.08;;;17.60;;
703;SDS011;335;48.694;9.120;2022-12-10T13:05:34;20.60;;;17.23;;
703;SDS011;335;48.694;9.120;2022-12-10T13:15:50;21.67;;;17.65;;
703;SDS011;335;48.694;9.120;2022-12-10T13:28:25;21.33;;;17.55;;
703;SDS011;335;48.694;9.120;2022-12-10T13:36:12;19.95;;;17.02;;
703;SDS011;335;48.694;9.120;2022-12-10T13:38:41;20.77;;;17.07;;
703;SDS011;335;48.694;9.120;2022-12-10T13:41:18;20.77;;;17.00;;
703;SDS011;335;48.694;9.120;2022-12-10T13:44:21;21.00;;;16.17;;
703;SDS011;335;48.694;9.120;2022-12-10T13:49:27;20.38;;;16.73;;
703;SDS011;335;48.694;9.120;2022-12-10T13:51:58;21.00;;;16.80;;
703;SDS011;335;48.694;9.120;2022-12-10T14:05:14;23.30;;;18.35;;
703;SDS011;335;48.694;9.120;2022-12-10T14:07:50;27.50;;;20.88;;
703;SDS011;335;48.694;9.120;2022-12-10T14:10:26;28.38;;;21.80;;
703;SDS011;335;48.694;9.120;2022-12-10T14:12:55;22.90;;;18.35;;
703;SDS011;335;48.694;9.120;2022-12-10T14:15:24;28.83;;;20.90;;
703;SDS011;335;48.694;9.120;2022-12-10T14:17:53;29.38;;;22.40;;
703;SDS011;335;48.694;9.120;2022-12-10T14:20:23;25.05;;;18.73;;
703;SDS011;335;48.694;9.120;2022-12-10T14:22:49;27.98;;;22.23;;
703;SDS011;335;48.694;9.120;2022-12-10T14:25:17;25.17;;;19.75;;
703;SDS011;335;48.694;9.120;2022-12-10T14:27:48;22.45;;;17.90;;
703;SDS011;335;48.694;9.120;2022-12-10T14:30:16;30.75;;;21.33;;
703;SDS011;335;48.694;9.120;2022-12-10T14:32:45;31.13;;;21.65;;
703;SDS011;335;48.694;9.120;2022-12-10T14:35:15;25.63;;;19.20;;
703;SDS011;335;48.694;9.120;2022-12-10T14:37:45;26.63;;;20.85;;
703;SDS011;335;48.694;9.120;2022-12-10T14:40:17;28.75;;;20.25;;
703;SDS011;335;48.694;9.120;2022-12-10T14:42:45;25.02;;;19.00;;
703;SDS011;335;48.694;9.120;2022-12-10T14:45:11;26.40;;;19.57;;
703;SDS011;335;48.694;9.120;2022-12-10T14:47:38;29.67;;;20.77;;
703;SDS011;335;48.694;9.120;2022-12-10T14:50:06;25.10;;;19.50;;
703;SDS011;335;48.694;9.120;2022-12-10T14:52:39;23.08;;;17.60;;
703;SDS011;335;48.694;9.120;2022-12-10T14:55:11;24.45;;;17.83;;
703;SDS011;335;48.694;9.120;2022-12-10T14:57:38;23.90;;;17.58;;
703;SDS011;335;48.694;9.120;2022-12-10T15:00:06;24.25;;;18.70;;
703;SDS011;335;48.694;9.120;2022-12-10T15:02:37;23.30;;;18.52;;
703;SDS011;335;48.694;9.120;2022-12-10T15:05:04;23.58;;;18.25;;
703;SDS011;335;48.694;9.120;2022-12-10T15:07:38;25.55;;;18.65;;
703;SDS011;335;48.694;9.120;2022-12-10T15:10:07;23.13;;;17.48;;
703;SDS011;335;48.694;9.120;2022-12-10T15:12:38;21.45;;;17.75;;
703;SDS011;335;48.694;9.120;2022-12-10T15:17:54;22.73;;;17.02;;
703;SDS011;335;48.694;9.120;2022-12-10T15:20:26;20.63;;;15.20;;
703;SDS011;335;48.694;9.120;2022-12-10T15:22:54;22.17;;;17.60;;
703;SDS011;335;48.694;9.120;2022-12-10T15:25:31;24.65;;;16.95;;
703;SDS011;335;48.694;9.120;2022-12-10T15:28:19;22.25;;;17.73;;
703;SDS011;335;48.694;9.120;2022-12-10T15:33:43;21.08;;;14.85;;
703;SDS011;335;48.694;9.120;2022-12-10T15:38:50;26.73;;;18.48;;
703;SDS011;335;48.694;9.120;2022-12-10T15:41:23;24.53;;;18.40;;
703;SDS011;335;48.694;9.120;2022-12-10T15:44:17;24.65;;;17.45;;
703;SDS011;335;48.694;9.120;2022-12-10T15:46:58;28.08;;;17.92;;
703;SDS011;335;48.694;9.120;2022-12-10T15:49:47;23.73;;;17.33;;
703;SDS011;335;48.694;9.120;2022-12-10T15:52:24;22.70;;;16.55;;
703;SDS011;335;48.694;9.120;2022-12-10T15:54:52;25.45;;;18.13;;
703;SDS011;335;48.694;9.120;2022-12-10T15:57:22;22.60;;;17.00;;
703;SDS011;335;48.694;9.120;2022-12-10T15:59:56;24.95;;;16.85;;
703;SDS011;335;48.694;9.120;2022-12-10T16:02:27;23.70;;;18.10;;
703;SDS011;335;48.694;9.120;2022-12-10T16:05:15;23.40;;;17.63;;
703;SDS011;335;48.694;9.120;2022-12-10T16:07:43;27.50;;;19.23;;
703;SDS011;335;48.694;9.120;2022-12-10T16:10:09;23.73;;;18.52;;
703;SDS011;335;48.694;9.120;2022-12-10T16:12:40;25.63;;;19.35;;
703;SDS011;335;48.694;9.120;2022-12-10T16:15:10;24.92;;;18.40;;
703;SDS011;335;48.694;9.120;2022-12-10T16:17:39;27.33;;;20.27;;
703;SDS011;335;48.694;9.120;2022-12-10T16:20:24;25.30;;;18.40;;
703;SDS011;335;48.694;9.120;2022-12-10T16:22:55;27.20;;;19.27;;
703;SDS011;335;48.694;9.120;2022-12-10T16:25:22;25.95;;;19.65;;
703;SDS011;335;48.694;9.120;2022-12-10T16:27:49;27.42;;;19.35;;
703;SDS011;335;48.694;9.120;2022-12-10T16:30:19;29.83;;;20.60;;
703;SDS011;335;48.694;9.120;2022-12-10T16:32:45;22.33;;;16.67;;
703;SDS011;335;48.694;9.120;2022-12-10T16:35:11;25.10;;;17.70;;
703;SDS011;335;48.694;9.120;2022-12-10T16:37:39;26.65;;;20.65;;
703;SDS011;335;48.694;9.120;2022-12-10T16:40:19;23.13;;;15.68;;
703;SDS011;335;48.694;9.120;2022-12-10T16:42:48;21.42;;;16.60;;
703;SDS011;335;48.694;9.120;2022-12-10T16:45:16;22.20;;;16.60;;
703;SDS011;335;48.694;9.120;2022-12-10T16:47:44;23.90;;;18.10;;
703;SDS011;335;48.694;9.120;2022-12-10T16:50:10;25.37;;;18.57;;
703;SDS011;335;48.694;9.120;2022-12-10T16:52:36;22.67;;;18.23;;
703;SDS011;335;48.694;9.120;2022-12-10T16:55:01;22.47;;;16.80;;
703;SDS011;335;48.694;9.120;2022-12-10T16:57:27;24.03;;;16.80;;
703;SDS011;335;48.694;9.120;2022-12-10T16:59:52;23.00;;;17.30;;
703;SDS011;335;48.694;9.120;2022-12-10T17:02:18;23.57;;;17.17;;
703;SDS011;335;48.694;9.120;2022-12-10T17:04:45;21.48;;;17.02;;
703;SDS011;335;48.694;9.120;2022-12-10T17:07:12;22.90;;;17.43;;
703;SDS011;335;48.694;9.120;2022-12-10T17:09:38;22.20;;;17.80;;
703;SDS011;335;48.694;9.120;2022-12-10T17:12:05;23.00;;;18.07;;
703;SDS011;335;48.694;9.120;2022-12-10T17:14:36;24.80;;;18.77;;
703;SDS011;335;48.694;9.120;2022-12-10T17:17:03;27.85;;;19.02;;
703;SDS011;335;48.694;9.120;2022-12-10T17:19:30;29.27;;;20.10;;
703;SDS011;335;48.694;9.120;2022-12-10T17:21:56;24.73;;;18.35;;
703;SDS011;335;48.694;9.120;2022-12-10T17:24:22;26.33;;;18.00;;
703;SDS011;335;48.694;9.120;2022-12-10T17:26:47;24.70;;;18.27;;
703;SDS011;335;48.694;9.120;2022-12-10T17:29:15;29.30;;;18.83;;
703;SDS011;335;48.694;9.120;2022-12-10T17:31:42;26.35;;;17.98;;